createdAt,value
2023-04-16T00:00:29.351Z,8.8
2023-04-16T00:01:29.426Z,8.79
2023-04-16T00:02:29.527Z,8.81
2023-04-16T00:03:29.704Z,8.81
2023-04-16T00:04:29.614Z,8.77
2023-04-16T00:05:29.561Z,8.77
2023-04-16T00:06:29.610Z,8.78
2023-04-16T00:07:29.646Z,8.79
2023-04-16T00:08:29.687Z,8.78
2023-04-16T00:09:29.727Z,8.79
2023-04-16T00:10:29.759Z,8.8
2023-04-16T00:11:29.811Z,8.8
2023-04-16T00:12:29.856Z,8.8
2023-04-16T00:13:29.878Z,8.8
2023-04-16T00:14:29.929Z,8.82
2023-04-16T00:15:29.973Z,8.8
2023-04-16T00:16:30.065Z,8.79
2023-04-16T00:17:30.096Z,8.79
2023-04-16T00:18:30.087Z,8.78
2023-04-16T00:19:30.126Z,8.78
2023-04-16T00:20:30.176Z,8.74
2023-04-16T00:21:30.215Z,8.73
2023-04-16T00:22:30.268Z,8.74
2023-04-16T00:23:30.298Z,8.73
2023-04-16T00:24:30.364Z,8.73
2023-04-16T00:25:30.385Z,8.74
2023-04-16T00:26:30.422Z,8.73
2023-04-16T00:27:30.463Z,8.72
2023-04-16T00:28:30.502Z,8.7
2023-04-16T00:29:30.567Z,8.7
2023-04-16T00:30:30.622Z,8.67
2023-04-16T00:31:30.757Z,8.67
2023-04-16T00:32:30.696Z,8.67
2023-04-16T00:33:30.699Z,8.7
2023-04-16T00:34:30.745Z,8.7
2023-04-16T00:35:30.802Z,8.69
2023-04-16T00:36:30.835Z,8.69
2023-04-16T00:37:30.894Z,8.66
2023-04-16T00:38:30.923Z,8.66
2023-04-16T00:39:30.962Z,8.66
2023-04-16T00:40:31.030Z,8.66
2023-04-16T00:41:31.037Z,8.67
2023-04-16T00:42:31.091Z,8.67
2023-04-16T00:43:31.118Z,8.67
2023-04-16T00:44:31.159Z,8.68
2023-04-16T00:45:31.206Z,8.68
2023-04-16T00:46:31.318Z,8.66
2023-04-16T00:47:31.322Z,8.67
2023-04-16T00:48:31.350Z,8.65
2023-04-16T00:49:31.360Z,8.65
2023-04-16T00:50:31.424Z,8.65
2023-04-16T00:51:31.447Z,8.65
2023-04-16T00:52:31.489Z,8.66
2023-04-16T00:53:31.563Z,8.66
2023-04-16T00:54:31.607Z,8.66
2023-04-16T00:55:31.619Z,8.66
2023-04-16T00:56:31.661Z,8.66
2023-04-16T00:57:31.703Z,8.63
2023-04-16T00:58:31.740Z,8.63
2023-04-16T00:59:31.797Z,8.66
2023-04-16T01:00:31.828Z,8.64
2023-04-16T01:01:31.914Z,8.64
2023-04-16T01:02:31.973Z,8.63
2023-04-16T01:03:32.217Z,8.64
2023-04-16T01:04:32.028Z,8.64
2023-04-16T01:05:32.042Z,8.64
2023-04-16T01:06:32.093Z,8.64
2023-04-16T01:07:32.135Z,8.64
2023-04-16T01:08:32.173Z,8.64
2023-04-16T01:09:32.230Z,8.64
2023-04-16T01:10:32.251Z,8.64
2023-04-16T01:11:32.365Z,8.65
2023-04-16T01:12:32.341Z,8.64
2023-04-16T01:13:32.383Z,8.64
2023-04-16T01:14:32.412Z,8.64
2023-04-16T01:15:32.481Z,8.64
2023-04-16T01:16:32.544Z,8.64
2023-04-16T01:17:32.589Z,8.64
2023-04-16T01:18:32.586Z,8.64
2023-04-16T01:19:32.657Z,8.64
2023-04-16T01:20:32.678Z,8.64
2023-04-16T01:21:32.711Z,8.64
2023-04-16T01:22:32.778Z,8.61
2023-04-16T01:23:32.789Z,8.61
2023-04-16T01:24:32.829Z,8.58
2023-04-16T01:25:32.877Z,8.52
2023-04-16T01:26:32.919Z,8.52
2023-04-16T01:27:32.979Z,8.52
2023-04-16T01:28:33.043Z,8.53
2023-04-16T01:29:33.057Z,8.53
2023-04-16T01:30:33.092Z,8.52
2023-04-16T01:31:33.174Z,8.52
2023-04-16T01:32:33.222Z,8.51
2023-04-16T01:33:33.223Z,8.51
2023-04-16T01:34:33.289Z,8.52
2023-04-16T01:35:33.296Z,8.5
2023-04-16T01:36:33.350Z,8.5
2023-04-16T01:37:33.393Z,8.5
2023-04-16T01:38:33.436Z,8.51
2023-04-16T01:39:33.486Z,8.5
2023-04-16T01:40:33.509Z,8.5
2023-04-16T01:41:33.548Z,8.49
2023-04-16T01:42:33.619Z,8.49
2023-04-16T01:43:33.644Z,8.49
2023-04-16T01:44:33.697Z,8.49
2023-04-16T01:45:33.709Z,8.48
2023-04-16T01:46:33.818Z,8.45
2023-04-16T01:47:33.825Z,8.46
2023-04-16T01:48:33.831Z,8.45
2023-04-16T01:49:33.925Z,8.45
2023-04-16T01:50:33.926Z,8.46
2023-04-16T01:51:33.999Z,8.45
2023-04-16T01:52:34.004Z,8.46
2023-04-16T01:53:36.543Z,8.46
2023-04-16T01:54:34.083Z,8.45
2023-04-16T01:55:34.121Z,8.44
2023-04-16T01:56:34.168Z,8.43
2023-04-16T01:57:34.214Z,8.41
2023-04-16T01:58:34.248Z,8.42
2023-04-16T01:59:34.289Z,8.42
2023-04-16T02:00:34.399Z,8.42
2023-04-16T02:01:34.364Z,8.42
2023-04-16T02:02:34.540Z,8.4
2023-04-16T02:03:34.681Z,8.39
2023-04-16T02:04:34.489Z,8.34
2023-04-16T02:05:34.549Z,8.34
2023-04-16T02:06:34.584Z,8.34
2023-04-16T02:07:34.653Z,8.34
2023-04-16T02:08:34.704Z,8.34
2023-04-16T02:09:34.712Z,8.34
2023-04-16T02:10:34.748Z,8.36
2023-04-16T02:11:34.783Z,8.34
2023-04-16T02:12:34.830Z,8.32
2023-04-16T02:13:34.897Z,8.33
2023-04-16T02:14:34.908Z,8.32
2023-04-16T02:15:34.945Z,8.27
2023-04-16T02:16:35.087Z,8.27
2023-04-16T02:17:35.034Z,8.3
2023-04-16T02:18:35.063Z,8.28
2023-04-16T02:19:35.112Z,8.28
2023-04-16T02:20:35.154Z,8.3
2023-04-16T02:21:35.203Z,8.3
2023-04-16T02:22:35.243Z,8.27
2023-04-16T02:23:35.280Z,8.27
2023-04-16T02:24:35.328Z,8.28
2023-04-16T02:25:35.368Z,8.28
2023-04-16T02:26:35.428Z,8.28
2023-04-16T02:27:35.475Z,8.3
2023-04-16T02:28:35.502Z,8.27
2023-04-16T02:29:35.537Z,8.27
2023-04-16T02:30:35.594Z,8.28
2023-04-16T02:31:35.672Z,8.24
2023-04-16T02:32:35.709Z,8.23
2023-04-16T02:33:35.704Z,8.22
2023-04-16T02:34:35.733Z,8.22
2023-04-16T02:35:35.791Z,8.23
2023-04-16T02:36:35.839Z,8.22
2023-04-16T02:37:35.887Z,8.22
2023-04-16T02:38:35.932Z,8.22
2023-04-16T02:39:35.954Z,8.23
2023-04-16T02:40:35.989Z,8.17
2023-04-16T02:41:36.025Z,8.17
2023-04-16T02:42:36.059Z,8.17
2023-04-16T02:43:36.127Z,8.17
2023-04-16T02:44:36.146Z,8.17
2023-04-16T02:45:36.223Z,8.17
2023-04-16T02:46:36.230Z,8.17
2023-04-16T02:47:36.328Z,8.17
2023-04-16T02:48:36.314Z,8.18
2023-04-16T02:49:36.356Z,8.15
2023-04-16T02:50:36.404Z,8.14
2023-04-16T02:51:36.440Z,8.15
2023-04-16T02:52:36.497Z,8.15
2023-04-16T02:53:36.516Z,8.15
2023-04-16T02:54:36.553Z,8.12
2023-04-16T02:55:36.598Z,8.12
2023-04-16T02:56:36.637Z,8.09
2023-04-16T02:57:36.710Z,8.12
2023-04-16T02:58:36.748Z,8.07
2023-04-16T02:59:36.752Z,8.06
2023-04-16T03:00:36.803Z,8.06
2023-04-16T03:01:36.894Z,8.06
2023-04-16T03:02:37.011Z,8.06
2023-04-16T03:03:36.946Z,8.07
2023-04-16T03:04:37.127Z,8.02
2023-04-16T03:05:38.514Z,8.02
2023-04-16T03:06:37.061Z,7.99
2023-04-16T03:07:37.088Z,7.99
2023-04-16T03:08:37.118Z,8
2023-04-16T03:09:37.155Z,8
2023-04-16T03:10:37.200Z,7.99
2023-04-16T03:11:37.269Z,8
2023-04-16T03:12:37.292Z,8
2023-04-16T03:13:37.326Z,8
2023-04-16T03:14:37.360Z,7.99
2023-04-16T03:15:37.427Z,7.99
2023-04-16T03:16:37.475Z,7.98
2023-04-16T03:17:37.552Z,7.98
2023-04-16T03:18:37.534Z,7.98
2023-04-16T03:19:37.589Z,7.99
2023-04-16T03:20:37.615Z,7.99
2023-04-16T03:21:37.675Z,7.99
2023-04-16T03:22:37.719Z,7.99
2023-04-16T03:23:37.743Z,7.99
2023-04-16T03:24:37.791Z,7.99
2023-04-16T03:25:37.830Z,7.99
2023-04-16T03:26:37.869Z,7.98
2023-04-16T03:27:37.939Z,7.98
2023-04-16T03:28:37.959Z,7.98
2023-04-16T03:29:38.004Z,7.97
2023-04-16T03:30:38.037Z,7.98
2023-04-16T03:31:38.082Z,7.98
2023-04-16T03:32:38.169Z,7.95
2023-04-16T03:33:38.159Z,7.95
2023-04-16T03:34:38.209Z,7.92
2023-04-16T03:35:38.240Z,7.93
2023-04-16T03:36:38.291Z,7.92
2023-04-16T03:37:38.320Z,7.92
2023-04-16T03:38:38.372Z,7.9
2023-04-16T03:39:38.432Z,7.9
2023-04-16T03:40:38.448Z,7.9
2023-04-16T03:41:38.518Z,7.9
2023-04-16T03:42:38.519Z,7.9
2023-04-16T03:43:38.564Z,7.91
2023-04-16T03:44:38.621Z,7.91
2023-04-16T03:45:38.647Z,7.91
2023-04-16T03:46:38.722Z,7.88
2023-04-16T03:47:38.756Z,7.85
2023-04-16T03:48:38.773Z,7.86
2023-04-16T03:49:38.818Z,7.87
2023-04-16T03:50:38.861Z,7.86
2023-04-16T03:51:38.931Z,7.86
2023-04-16T03:52:38.943Z,7.85
2023-04-16T03:53:38.976Z,7.86
2023-04-16T03:54:39.021Z,7.85
2023-04-16T03:55:39.072Z,7.86
2023-04-16T03:56:39.128Z,7.86
2023-04-16T03:57:39.151Z,7.87
2023-04-16T03:58:39.186Z,7.89
2023-04-16T03:59:39.231Z,7.88
2023-04-16T04:00:39.275Z,7.89
2023-04-16T04:01:39.371Z,7.89
2023-04-16T04:02:39.477Z,7.88
2023-04-16T04:03:39.729Z,7.88
2023-04-16T04:04:39.531Z,7.88
2023-04-16T04:05:39.487Z,7.9
2023-04-16T04:06:39.529Z,7.9
2023-04-16T04:07:39.558Z,7.9
2023-04-16T04:08:39.594Z,7.89
2023-04-16T04:09:39.648Z,7.89
2023-04-16T04:10:39.692Z,7.87
2023-04-16T04:11:39.727Z,7.87
2023-04-16T04:12:39.765Z,7.87
2023-04-16T04:13:39.813Z,7.88
2023-04-16T04:14:39.917Z,7.88
2023-04-16T04:15:39.911Z,7.87
2023-04-16T04:16:40.068Z,7.87
2023-04-16T04:17:40.084Z,7.87
2023-04-16T04:18:40.055Z,7.87
2023-04-16T04:19:47.089Z,7.87
2023-04-16T04:20:40.098Z,7.88
2023-04-16T04:21:40.141Z,7.88
2023-04-16T04:22:40.186Z,7.89
2023-04-16T04:23:40.231Z,7.88
2023-04-16T04:24:40.273Z,7.84
2023-04-16T04:25:40.317Z,7.84
2023-04-16T04:26:40.351Z,7.84
2023-04-16T04:27:40.386Z,7.85
2023-04-16T04:28:40.443Z,7.84
2023-04-16T04:29:40.480Z,7.84
2023-04-16T04:30:40.520Z,7.85
2023-04-16T04:31:40.562Z,7.85
2023-04-16T04:32:40.612Z,7.84
2023-04-16T04:33:40.635Z,7.85
2023-04-16T04:34:40.678Z,7.85
2023-04-16T04:35:40.722Z,7.85
2023-04-16T04:36:40.765Z,7.84
2023-04-16T04:37:40.802Z,7.84
2023-04-16T04:38:40.844Z,7.84
2023-04-16T04:39:40.875Z,7.84
2023-04-16T04:40:40.916Z,7.85
2023-04-16T04:41:40.966Z,7.85
2023-04-16T04:42:41.010Z,7.85
2023-04-16T04:43:41.046Z,7.85
2023-04-16T04:44:41.085Z,7.85
2023-04-16T04:45:41.154Z,7.84
2023-04-16T04:46:41.175Z,7.84
2023-04-16T04:47:41.260Z,7.85
2023-04-16T04:48:41.251Z,7.85
2023-04-16T04:49:41.284Z,7.86
2023-04-16T04:50:41.330Z,7.86
2023-04-16T04:51:41.379Z,7.86
2023-04-16T04:52:41.415Z,7.87
2023-04-16T04:53:41.463Z,7.86
2023-04-16T04:54:41.531Z,7.86
2023-04-16T04:55:41.552Z,7.86
2023-04-16T04:56:41.608Z,7.86
2023-04-16T04:57:41.622Z,7.88
2023-04-16T04:58:41.661Z,7.88
2023-04-16T04:59:41.708Z,7.87
2023-04-16T05:00:41.751Z,7.86
2023-04-16T05:01:41.863Z,7.87
2023-04-16T05:02:41.964Z,7.88
2023-04-16T05:03:42.007Z,7.88
2023-04-16T05:04:41.958Z,7.87
2023-04-16T05:05:41.965Z,7.9
2023-04-16T05:06:41.975Z,7.88
2023-04-16T05:07:42.033Z,7.89
2023-04-16T05:08:42.066Z,7.89
2023-04-16T05:09:42.098Z,7.88
2023-04-16T05:10:42.135Z,7.88
2023-04-16T05:11:42.182Z,7.87
2023-04-16T05:12:42.207Z,7.87
2023-04-16T05:13:42.272Z,7.87
2023-04-16T05:14:42.290Z,7.87
2023-04-16T05:15:42.347Z,7.87
2023-04-16T05:16:42.449Z,7.87
2023-04-16T05:17:42.414Z,7.86
2023-04-16T05:18:42.444Z,7.87
2023-04-16T05:19:42.486Z,7.84
2023-04-16T05:20:42.532Z,7.84
2023-04-16T05:21:42.574Z,7.88
2023-04-16T05:22:42.606Z,7.88
2023-04-16T05:23:42.635Z,7.88
2023-04-16T05:24:42.671Z,7.88
2023-04-16T05:25:42.720Z,7.88
2023-04-16T05:26:42.757Z,7.91
2023-04-16T05:27:42.818Z,7.91
2023-04-16T05:28:42.846Z,7.91
2023-04-16T05:29:42.881Z,7.9
2023-04-16T05:30:42.929Z,7.92
2023-04-16T05:31:42.972Z,7.92
2023-04-16T05:32:43.009Z,7.94
2023-04-16T05:33:43.043Z,7.92
2023-04-16T05:34:43.090Z,7.92
2023-04-16T05:35:43.168Z,7.93
2023-04-16T05:36:43.173Z,7.92
2023-04-16T05:37:43.205Z,7.92
2023-04-16T05:38:43.257Z,7.93
2023-04-16T05:39:43.284Z,7.93
2023-04-16T05:40:43.339Z,7.93
2023-04-16T05:41:43.374Z,7.98
2023-04-16T05:42:43.408Z,7.98
2023-04-16T05:43:43.454Z,7.97
2023-04-16T05:44:43.498Z,7.96
2023-04-16T05:45:43.544Z,7.97
2023-04-16T05:46:43.576Z,7.97
2023-04-16T05:47:43.637Z,7.98
2023-04-16T05:48:43.650Z,7.97
2023-04-16T05:49:43.689Z,7.97
2023-04-16T05:50:43.727Z,7.94
2023-04-16T05:51:43.767Z,7.96
2023-04-16T05:52:43.806Z,7.95
2023-04-16T05:53:43.854Z,7.96
2023-04-16T05:54:43.890Z,7.95
2023-04-16T05:55:43.925Z,7.94
2023-04-16T05:56:43.961Z,7.95
2023-04-16T05:57:44.003Z,7.97
2023-04-16T05:58:44.042Z,8
2023-04-16T05:59:44.104Z,7.97
2023-04-16T06:00:44.140Z,7.96
2023-04-16T06:01:44.173Z,8
2023-04-16T06:02:44.331Z,8
2023-04-16T06:03:44.451Z,8
2023-04-16T06:04:44.300Z,8
2023-04-16T06:05:44.397Z,8
2023-04-16T06:06:44.388Z,8
2023-04-16T06:07:44.427Z,8.02
2023-04-16T06:08:44.461Z,8.02
2023-04-16T06:09:44.509Z,8.02
2023-04-16T06:10:44.551Z,8.03
2023-04-16T06:11:44.592Z,8.03
2023-04-16T06:12:44.633Z,8.03
2023-04-16T06:13:44.679Z,8.05
2023-04-16T06:14:44.712Z,8.05
2023-04-16T06:15:44.817Z,8.04
2023-04-16T06:16:44.793Z,8.03
2023-04-16T06:17:44.890Z,8.02
2023-04-16T06:18:44.875Z,8.02
2023-04-16T06:19:44.914Z,8.02
2023-04-16T06:20:44.951Z,8.01
2023-04-16T06:21:45.009Z,8.02
2023-04-16T06:22:45.057Z,8.02
2023-04-16T06:23:45.083Z,8.02
2023-04-16T06:24:45.112Z,8.02
2023-04-16T06:25:45.146Z,8.04
2023-04-16T06:26:45.205Z,8.04
2023-04-16T06:27:45.250Z,8.04
2023-04-16T06:28:45.269Z,8.03
2023-04-16T06:29:45.309Z,8.06
2023-04-16T06:30:45.342Z,8.09
2023-04-16T06:31:45.443Z,8.09
2023-04-16T06:32:45.432Z,8.12
2023-04-16T06:33:45.473Z,8.11
2023-04-16T06:34:45.498Z,8.15
2023-04-16T06:35:45.550Z,8.15
2023-04-16T06:36:45.579Z,8.15
2023-04-16T06:37:45.628Z,8.15
2023-04-16T06:38:45.661Z,8.14
2023-04-16T06:39:45.721Z,8.13
2023-04-16T06:40:45.750Z,8.13
2023-04-16T06:41:45.786Z,8.14
2023-04-16T06:42:45.861Z,8.14
2023-04-16T06:43:45.867Z,8.15
2023-04-16T06:44:45.909Z,8.14
2023-04-16T06:45:45.954Z,8.14
2023-04-16T06:46:46.051Z,8.14
2023-04-16T06:47:46.062Z,8.14
2023-04-16T06:48:46.070Z,8.13
2023-04-16T06:49:46.108Z,8.16
2023-04-16T06:50:46.152Z,8.16
2023-04-16T06:51:46.189Z,8.16
2023-04-16T06:52:46.238Z,8.13
2023-04-16T06:53:46.278Z,8.12
2023-04-16T06:54:46.328Z,8.16
2023-04-16T06:55:46.351Z,8.14
2023-04-16T06:56:46.380Z,8.16
2023-04-16T06:57:46.424Z,8.16
2023-04-16T06:58:46.501Z,8.17
2023-04-16T06:59:46.511Z,8.17
2023-04-16T07:00:46.579Z,8.16
2023-04-16T07:01:46.598Z,8.16
2023-04-16T07:02:46.722Z,8.16
2023-04-16T07:03:47.126Z,8.18
2023-04-16T07:04:46.708Z,8.17
2023-04-16T07:05:46.746Z,8.16
2023-04-16T07:06:46.790Z,8.16
2023-04-16T07:07:46.831Z,8.13
2023-04-16T07:08:46.870Z,8.14
2023-04-16T07:09:46.894Z,8.16
2023-04-16T07:10:46.934Z,8.16
2023-04-16T07:11:46.984Z,8.17
2023-04-16T07:12:47.021Z,8.15
2023-04-16T07:13:47.061Z,8.15
2023-04-16T07:14:47.092Z,8.16
2023-04-16T07:15:47.133Z,8.19
2023-04-16T07:16:47.216Z,8.19
2023-04-16T07:17:47.252Z,8.18
2023-04-16T07:18:47.266Z,8.18
2023-04-16T07:19:47.300Z,8.2
2023-04-16T07:20:47.333Z,8.2
2023-04-16T07:21:47.384Z,8.18
2023-04-16T07:22:47.428Z,8.18
2023-04-16T07:23:47.470Z,8.19
2023-04-16T07:24:47.507Z,8.18
2023-04-16T07:25:47.545Z,8.17
2023-04-16T07:26:47.576Z,8.17
2023-04-16T07:27:47.608Z,8.15
2023-04-16T07:28:47.652Z,8.15
2023-04-16T07:29:47.674Z,8.16
2023-04-16T07:30:47.729Z,8.16
2023-04-16T07:31:47.787Z,8.18
2023-04-16T07:32:47.891Z,8.18
2023-04-16T07:33:47.836Z,8.16
2023-04-16T07:34:47.881Z,8.16
2023-04-16T07:35:47.910Z,8.17
2023-04-16T07:36:47.940Z,8.16
2023-04-16T07:37:47.989Z,8.17
2023-04-16T07:38:48.030Z,8.16
2023-04-16T07:39:48.072Z,8.16
2023-04-16T07:40:48.113Z,8.15
2023-04-16T07:41:48.146Z,8.19
2023-04-16T07:42:48.176Z,8.19
2023-04-16T07:43:48.212Z,8.23
2023-04-16T07:44:48.259Z,8.2
2023-04-16T07:45:48.311Z,8.2
2023-04-16T07:46:48.399Z,8.2
2023-04-16T07:47:48.407Z,8.19
2023-04-16T07:48:48.415Z,8.19
2023-04-16T07:49:48.461Z,8.2
2023-04-16T07:50:48.496Z,8.2
2023-04-16T07:51:48.544Z,8.21
2023-04-16T07:52:48.583Z,8.22
2023-04-16T07:53:48.612Z,8.23
2023-04-16T07:54:48.659Z,8.22
2023-04-16T07:55:48.693Z,8.23
2023-04-16T07:56:48.736Z,8.27
2023-04-16T07:57:48.760Z,8.27
2023-04-16T07:58:48.802Z,8.28
2023-04-16T07:59:48.845Z,8.29
2023-04-16T08:00:50.773Z,8.31
2023-04-16T08:01:48.952Z,8.31
2023-04-16T08:02:49.180Z,8.34
2023-04-16T08:03:49.148Z,8.33
2023-04-16T08:04:49.155Z,8.32
2023-04-16T08:05:49.069Z,8.36
2023-04-16T08:06:49.115Z,8.44
2023-04-16T08:07:49.154Z,8.43
2023-04-16T08:08:49.191Z,8.42
2023-04-16T08:09:49.239Z,8.44
2023-04-16T08:10:49.275Z,8.4
2023-04-16T08:11:49.334Z,8.39
2023-04-16T08:12:49.348Z,8.4
2023-04-16T08:13:49.393Z,8.41
2023-04-16T08:14:49.445Z,8.42
2023-04-16T08:15:49.515Z,8.44
2023-04-16T08:16:49.526Z,8.45
2023-04-16T08:17:49.595Z,8.45
2023-04-16T08:18:49.611Z,8.45
2023-04-16T08:19:49.648Z,8.47
2023-04-16T08:20:49.688Z,8.46
2023-04-16T08:21:49.724Z,8.45
2023-04-16T08:22:49.761Z,8.48
2023-04-16T08:23:49.798Z,8.48
2023-04-16T08:24:49.853Z,8.52
2023-04-16T08:25:51.248Z,8.56
2023-04-16T08:26:49.923Z,8.53
2023-04-16T08:27:49.964Z,8.52
2023-04-16T08:28:49.999Z,8.53
2023-04-16T08:29:50.048Z,8.53
2023-04-16T08:30:50.083Z,8.55
2023-04-16T08:31:50.214Z,8.56
2023-04-16T08:32:50.576Z,8.57
2023-04-16T08:33:50.205Z,8.57
2023-04-16T08:34:50.244Z,8.55
2023-04-16T08:35:50.292Z,8.55
2023-04-16T08:36:50.346Z,8.55
2023-04-16T08:37:50.355Z,8.56
2023-04-16T08:38:50.408Z,8.52
2023-04-16T08:39:50.439Z,8.53
2023-04-16T08:40:50.474Z,8.52
2023-04-16T08:41:50.523Z,8.52
2023-04-16T08:42:50.556Z,8.52
2023-04-16T08:43:50.592Z,8.54
2023-04-16T08:44:50.637Z,8.54
2023-04-16T08:45:50.694Z,8.54
2023-04-16T08:46:50.773Z,8.55
2023-04-16T08:47:50.774Z,8.55
2023-04-16T08:48:50.796Z,8.55
2023-04-16T08:49:50.825Z,8.58
2023-04-16T08:50:50.872Z,8.59
2023-04-16T08:51:50.905Z,8.59
2023-04-16T08:52:50.941Z,8.59
2023-04-16T08:53:50.988Z,8.61
2023-04-16T08:54:56.528Z,8.6
2023-04-16T08:55:51.075Z,8.61
2023-04-16T08:56:51.111Z,8.61
2023-04-16T08:57:51.151Z,8.62
2023-04-16T08:58:51.189Z,8.6
2023-04-16T08:59:51.233Z,8.56
2023-04-16T09:00:51.280Z,8.58
2023-04-16T09:01:51.369Z,8.57
2023-04-16T09:02:51.651Z,8.57
2023-04-16T09:03:51.520Z,8.57
2023-04-16T09:04:51.578Z,8.58
2023-04-16T09:05:51.471Z,8.6
2023-04-16T09:06:51.515Z,8.6
2023-04-16T09:07:51.545Z,8.6
2023-04-16T09:08:51.578Z,8.64
2023-04-16T09:09:51.623Z,8.62
2023-04-16T09:10:51.662Z,8.61
2023-04-16T09:11:51.711Z,8.61
2023-04-16T09:12:51.744Z,8.62
2023-04-16T09:13:51.791Z,8.63
2023-04-16T09:14:51.833Z,8.63
2023-04-16T09:15:51.880Z,8.63
2023-04-16T09:16:51.931Z,8.64
2023-04-16T09:17:51.980Z,8.63
2023-04-16T09:18:51.979Z,8.63
2023-04-16T09:19:52.026Z,8.64
2023-04-16T09:20:52.060Z,8.63
2023-04-16T09:21:52.087Z,8.64
2023-04-16T09:22:52.126Z,8.65
2023-04-16T09:23:52.166Z,8.64
2023-04-16T09:24:52.211Z,8.62
2023-04-16T09:25:52.266Z,8.62
2023-04-16T09:26:52.319Z,8.62
2023-04-16T09:27:52.335Z,8.63
2023-04-16T09:28:52.379Z,8.64
2023-04-16T09:30:52.441Z,8.63
2023-04-16T09:31:52.525Z,8.63
2023-04-16T09:32:52.559Z,8.63
2023-04-16T09:33:52.562Z,8.65
2023-04-16T09:34:52.599Z,8.65
2023-04-16T09:35:52.646Z,8.65
2023-04-16T09:36:52.753Z,8.64
2023-04-16T09:37:52.725Z,8.63
2023-04-16T09:38:53.363Z,8.65
2023-04-16T09:39:52.811Z,8.66
2023-04-16T09:40:52.850Z,8.69
2023-04-16T09:41:52.890Z,8.66
2023-04-16T09:42:52.925Z,8.65
2023-04-16T09:43:52.972Z,8.64
2023-04-16T09:44:53.035Z,8.63
2023-04-16T09:45:53.098Z,8.66
2023-04-16T09:46:53.124Z,8.66
2023-04-16T09:47:53.176Z,8.68
2023-04-16T09:48:53.184Z,8.74
2023-04-16T09:49:53.214Z,8.76
2023-04-16T09:50:53.256Z,8.78
2023-04-16T09:51:53.312Z,8.8
2023-04-16T09:52:53.355Z,8.79
2023-04-16T09:53:53.371Z,8.77
2023-04-16T09:54:53.426Z,8.78
2023-04-16T09:55:53.452Z,8.78
2023-04-16T09:56:53.493Z,8.83
2023-04-16T09:57:53.535Z,8.83
2023-04-16T09:58:53.583Z,8.83
2023-04-16T09:59:53.616Z,8.84
2023-04-16T10:00:53.680Z,8.82
2023-04-16T10:01:53.844Z,8.82
2023-04-16T10:02:53.882Z,8.8
2023-04-16T10:03:53.978Z,8.82
2023-04-16T10:04:53.902Z,8.84
2023-04-16T10:05:53.870Z,8.82
2023-04-16T10:06:53.897Z,8.82
2023-04-16T10:07:53.933Z,8.84
2023-04-16T10:08:53.989Z,8.82
2023-04-16T10:09:54.012Z,8.89
2023-04-16T10:10:54.062Z,8.9
2023-04-16T10:11:54.081Z,8.9
2023-04-16T10:12:54.122Z,8.92
2023-04-16T10:13:54.181Z,9
2023-04-16T10:14:54.222Z,9
2023-04-16T10:15:54.255Z,8.99
2023-04-16T10:16:54.326Z,8.97
2023-04-16T10:17:54.403Z,8.96
2023-04-16T10:18:54.380Z,8.99
2023-04-16T10:19:54.421Z,8.98
2023-04-16T10:20:54.470Z,8.98
2023-04-16T10:21:54.495Z,8.98
2023-04-16T10:22:54.530Z,8.97
2023-04-16T10:23:54.582Z,8.96
2023-04-16T10:24:54.622Z,8.95
2023-04-16T10:25:57.391Z,8.95
2023-04-16T10:26:54.714Z,8.94
2023-04-16T10:27:54.747Z,8.88
2023-04-16T10:28:54.774Z,8.88
2023-04-16T10:29:54.807Z,8.9
2023-04-16T10:30:54.957Z,8.92
2023-04-16T10:31:54.914Z,8.95
2023-04-16T10:32:54.980Z,8.93
2023-04-16T10:33:54.973Z,8.92
2023-04-16T10:34:55.010Z,8.91
2023-04-16T10:36:07.037Z,8.91
2023-04-16T10:36:55.102Z,8.89
2023-04-16T10:37:55.125Z,8.89
2023-04-16T10:38:55.170Z,8.94
2023-04-16T10:39:55.214Z,8.97
2023-04-16T10:40:55.263Z,9.03
2023-04-16T10:41:55.317Z,9.05
2023-04-16T10:42:55.352Z,9.09
2023-04-16T10:43:55.385Z,9.12
2023-04-16T10:44:55.431Z,9.13
2023-04-16T10:45:55.508Z,9.13
2023-04-16T10:46:55.507Z,9.12
2023-04-16T10:47:55.624Z,9.11
2023-04-16T10:48:55.580Z,9.14
2023-04-16T10:49:55.619Z,9.14
2023-04-16T10:50:55.652Z,9.12
2023-04-16T10:51:55.722Z,9.09
2023-04-16T10:52:55.731Z,9.16
2023-04-16T10:53:55.766Z,9.16
2023-04-16T10:54:55.812Z,9.14
2023-04-16T10:55:55.852Z,9.13
2023-04-16T10:56:55.890Z,9.16
2023-04-16T10:57:55.925Z,9.17
2023-04-16T10:58:55.968Z,9.23
2023-04-16T10:59:56.009Z,9.29
2023-04-16T11:00:56.049Z,9.25
2023-04-16T11:01:56.289Z,9.3
2023-04-16T11:02:56.246Z,9.29
2023-04-16T11:03:56.429Z,9.32
2023-04-16T11:04:56.301Z,9.36
2023-04-16T11:05:56.248Z,9.35
2023-04-16T11:06:56.300Z,9.39
2023-04-16T11:07:56.333Z,9.38
2023-04-16T11:08:56.378Z,9.37
2023-04-16T11:09:56.433Z,9.34
2023-04-16T11:10:56.450Z,9.29
2023-04-16T11:11:56.502Z,9.26
2023-04-16T11:12:56.544Z,9.33
2023-04-16T11:13:56.609Z,9.37
2023-04-16T11:14:56.622Z,9.34
2023-04-16T11:15:56.660Z,9.31
2023-04-16T11:16:56.715Z,9.32
2023-04-16T11:17:56.780Z,9.32
2023-04-16T11:19:08.009Z,9.32
2023-04-16T11:19:56.800Z,9.31
2023-04-16T11:20:56.834Z,9.3
2023-04-16T11:21:56.898Z,9.31
2023-04-16T11:22:56.940Z,9.26
2023-04-16T11:23:56.967Z,9.26
2023-04-16T11:24:57.008Z,9.23
2023-04-16T11:25:57.068Z,9.27
2023-04-16T11:26:57.091Z,9.24
2023-04-16T11:27:57.131Z,9.27
2023-04-16T11:28:57.182Z,9.24
2023-04-16T11:29:57.210Z,9.25
2023-04-16T11:30:57.283Z,9.28
2023-04-16T11:31:57.293Z,9.3
2023-04-16T11:32:57.392Z,9.3
2023-04-16T11:33:57.393Z,9.31
2023-04-16T11:34:57.429Z,9.26
2023-04-16T11:35:57.460Z,9.27
2023-04-16T11:36:57.527Z,9.26
2023-04-16T11:37:57.546Z,9.25
2023-04-16T11:38:57.578Z,9.28
2023-04-16T11:39:57.617Z,9.32
2023-04-16T11:40:57.661Z,9.33
2023-04-16T11:41:57.764Z,9.36
2023-04-16T11:42:59.708Z,9.34
2023-04-16T11:43:57.814Z,9.33
2023-04-16T11:44:57.835Z,9.32
2023-04-16T11:45:57.870Z,9.35
2023-04-16T11:46:57.942Z,9.35
2023-04-16T11:47:58.066Z,9.26
2023-04-16T11:48:58.013Z,9.28
2023-04-16T11:49:58.027Z,9.28
2023-04-16T11:50:58.083Z,9.28
2023-04-16T11:51:58.137Z,9.3
2023-04-16T11:52:58.155Z,9.32
2023-04-16T11:53:58.236Z,9.32
2023-04-16T11:54:58.235Z,9.3
2023-04-16T11:55:58.272Z,9.28
2023-04-16T11:56:58.308Z,9.24
2023-04-16T11:57:58.360Z,9.25
2023-04-16T11:58:58.417Z,9.25
2023-04-16T12:00:01.475Z,9.26
2023-04-16T12:00:58.472Z,9.23
2023-04-16T12:01:58.609Z,9.24
2023-04-16T12:02:58.691Z,9.29
2023-04-16T12:03:58.887Z,9.27
2023-04-16T12:04:58.644Z,9.28
2023-04-16T12:05:58.679Z,9.28
2023-04-16T12:06:58.715Z,9.29
2023-04-16T12:07:58.764Z,9.26
2023-04-16T12:08:58.788Z,9.29
2023-04-16T12:09:58.832Z,9.31
2023-04-16T12:10:58.877Z,9.28
2023-04-16T12:11:58.929Z,9.32
2023-04-16T12:12:58.970Z,9.32
2023-04-16T12:13:58.997Z,9.31
2023-04-16T12:14:59.103Z,9.31
2023-04-16T12:15:59.087Z,9.3
2023-04-16T12:16:59.208Z,9.31
2023-04-16T12:17:59.174Z,9.34
2023-04-16T12:18:59.211Z,9.35
2023-04-16T12:19:59.256Z,9.35
2023-04-16T12:20:59.289Z,9.34
2023-04-16T12:21:59.367Z,9.34
2023-04-16T12:22:59.372Z,9.32
2023-04-16T12:23:59.409Z,9.32
2023-04-16T12:24:59.465Z,9.32
2023-04-16T12:25:59.498Z,9.34
2023-04-16T12:26:59.565Z,9.34
2023-04-16T12:27:59.585Z,9.32
2023-04-16T12:28:59.617Z,9.32
2023-04-16T12:29:59.667Z,9.33
2023-04-16T12:30:59.842Z,9.36
2023-04-16T12:31:59.738Z,9.36
2023-04-16T12:32:59.858Z,9.35
2023-04-16T12:33:59.830Z,9.39
2023-04-16T12:34:59.878Z,9.38
2023-04-16T12:35:59.915Z,9.38
2023-04-16T12:36:59.960Z,9.37
2023-04-16T12:38:00.004Z,9.41
2023-04-16T12:39:00.046Z,9.4
2023-04-16T12:40:00.134Z,9.38
2023-04-16T12:41:00.116Z,9.38
2023-04-16T12:42:00.151Z,9.33
2023-04-16T12:43:00.210Z,9.25
2023-04-16T12:44:00.253Z,9.21
2023-04-16T12:45:00.286Z,9.07
2023-04-16T12:46:01.668Z,9.04
2023-04-16T12:47:00.379Z,9.04
2023-04-16T12:48:00.454Z,9.01
2023-04-16T12:49:00.451Z,9.01
2023-04-16T12:50:00.495Z,9.04
2023-04-16T12:51:00.530Z,9.04
2023-04-16T12:52:00.578Z,9.05
2023-04-16T12:53:00.609Z,9.05
2023-04-16T12:54:00.646Z,9.06
2023-04-16T12:55:00.688Z,9.08
2023-04-16T12:56:00.747Z,9.08
2023-04-16T12:57:00.764Z,9.05
2023-04-16T12:58:00.808Z,9.08
2023-04-16T12:59:00.851Z,9.07
2023-04-16T13:00:00.907Z,9.06
2023-04-16T13:01:00.953Z,9.08
2023-04-16T13:02:01.047Z,9.13
2023-04-16T13:03:01.151Z,9.12
2023-04-16T13:04:01.218Z,9.11
2023-04-16T13:05:01.127Z,9.1
2023-04-16T13:06:01.149Z,9.1
2023-04-16T13:07:01.214Z,9.13
2023-04-16T13:08:01.220Z,9.12
2023-04-16T13:09:01.269Z,9.13
2023-04-16T13:10:01.307Z,9.16
2023-04-16T13:11:01.340Z,9.16
2023-04-16T13:12:01.430Z,9.14
2023-04-16T13:14:01.504Z,9.15
2023-04-16T13:15:01.514Z,9.16
2023-04-16T13:16:01.609Z,9.17
2023-04-16T13:17:01.611Z,9.16
2023-04-16T13:18:01.716Z,9.18
2023-04-16T13:20:01.729Z,9.19
2023-04-16T13:21:01.805Z,9.19
2023-04-16T13:22:01.811Z,9.2
2023-04-16T13:23:01.851Z,9.23
2023-04-16T13:24:01.880Z,9.25
2023-04-16T13:25:02.038Z,9.24